createdAt,value
2019-03-22T00:01:06.420Z,16.43
2019-03-22T00:03:36.495Z,16.03
2019-03-22T00:06:06.596Z,16.57
2019-03-22T00:08:36.744Z,17.43
2019-03-22T00:11:06.918Z,17.40
2019-03-22T00:13:37.150Z,17.10
2019-03-22T00:16:07.351Z,17.70
2019-03-22T00:18:38.390Z,16.60
2019-03-22T00:21:08.477Z,16.83
2019-03-22T00:23:38.535Z,17.07
2019-03-22T00:26:08.709Z,17.27
2019-03-22T00:28:38.868Z,17.43
2019-03-22T00:31:09.066Z,17.63
2019-03-22T00:33:39.299Z,17.03
2019-03-22T00:36:09.467Z,16.00
2019-03-22T00:38:39.726Z,17.30
2019-03-22T00:41:09.845Z,17.87
2019-03-22T00:43:40.200Z,20.10
2019-03-22T00:46:10.238Z,21.27
2019-03-22T00:48:40.283Z,21.20
2019-03-22T00:51:10.296Z,20.47
2019-03-22T00:53:40.299Z,22.87
2019-03-22T00:56:10.741Z,24.30
2019-03-22T00:58:40.760Z,22.57
2019-03-22T01:01:10.806Z,22.03
2019-03-22T01:03:40.936Z,21.27
2019-03-22T01:06:10.950Z,19.77
2019-03-22T01:08:41.030Z,20.20
2019-03-22T01:11:11.340Z,19.37
2019-03-22T01:13:41.562Z,17.80
2019-03-22T01:16:11.826Z,18.50
2019-03-22T01:18:42.080Z,17.73
2019-03-22T01:21:12.185Z,18.17
2019-03-22T01:23:42.401Z,17.77
2019-03-22T01:26:12.660Z,17.97
2019-03-22T01:28:42.764Z,17.17
2019-03-22T01:31:12.934Z,16.47
2019-03-22T01:33:43.165Z,17.27
2019-03-22T01:36:13.360Z,16.53
2019-03-22T01:38:43.450Z,17.73
2019-03-22T01:41:13.651Z,16.07
2019-03-22T01:43:43.780Z,17.70
2019-03-22T01:46:14.201Z,17.30
2019-03-22T01:48:44.247Z,16.67
2019-03-22T01:51:14.372Z,18.20
2019-03-22T01:53:44.762Z,17.07
2019-03-22T01:56:14.888Z,17.50
2019-03-22T01:58:45.038Z,17.47
2019-03-22T02:01:15.037Z,18.00
2019-03-22T02:03:45.112Z,18.23
2019-03-22T02:06:15.144Z,16.53
2019-03-22T02:08:45.223Z,17.40
2019-03-22T02:11:15.492Z,18.27
2019-03-22T02:13:45.609Z,18.53
2019-03-22T02:16:15.981Z,17.73
2019-03-22T02:18:46.023Z,18.60
2019-03-22T02:21:16.170Z,18.20
2019-03-22T02:23:46.567Z,17.30
2019-03-22T02:26:16.581Z,17.77
2019-03-22T02:28:46.598Z,18.17
2019-03-22T02:31:16.702Z,18.77
2019-03-22T02:33:47.252Z,18.30
2019-03-22T02:36:17.297Z,18.10
2019-03-22T02:38:47.315Z,17.77
2019-03-22T02:41:17.459Z,17.90
2019-03-22T02:43:47.994Z,18.57
2019-03-22T02:46:17.998Z,19.00
2019-03-22T02:48:48.098Z,18.47
2019-03-22T02:51:18.240Z,18.60
2019-03-22T02:53:48.362Z,18.70
2019-03-22T02:56:18.669Z,18.10
2019-03-22T02:58:48.775Z,18.03
2019-03-22T03:01:18.992Z,18.50
2019-03-22T03:03:49.077Z,18.77
2019-03-22T03:06:19.474Z,18.70
2019-03-22T03:08:49.551Z,20.17
2019-03-22T03:11:19.704Z,18.23
2019-03-22T03:13:50.106Z,18.20
2019-03-22T03:16:20.121Z,18.53
2019-03-22T03:18:50.112Z,19.33
2019-03-22T03:21:20.165Z,20.30
2019-03-22T03:23:50.161Z,19.70
2019-03-22T03:26:20.161Z,20.70
2019-03-22T03:28:50.217Z,19.10
2019-03-22T03:31:20.519Z,19.47
2019-03-22T03:33:50.531Z,18.17
2019-03-22T03:36:20.813Z,19.50
2019-03-22T03:38:50.912Z,17.43
2019-03-22T03:41:20.924Z,20.30
2019-03-22T03:43:50.948Z,19.87
2019-03-22T03:46:20.982Z,20.40
2019-03-22T03:48:51.283Z,20.40
2019-03-22T03:51:21.295Z,21.13
2019-03-22T03:53:51.285Z,21.03
2019-03-22T03:56:21.341Z,19.93
2019-03-22T03:58:52.887Z,20.70
2019-03-22T04:01:23.137Z,21.30
2019-03-22T04:03:53.189Z,23.43
2019-03-22T04:06:23.185Z,22.27
2019-03-22T04:08:53.181Z,21.97
2019-03-22T04:11:23.196Z,22.23
2019-03-22T04:13:53.477Z,22.47
2019-03-22T04:16:23.463Z,21.90
2019-03-22T04:18:53.504Z,23.50
2019-03-22T04:21:23.525Z,21.47
2019-03-22T04:23:53.519Z,22.07
2019-03-22T04:26:23.522Z,23.43
2019-03-22T04:29:06.601Z,22.67
2019-03-22T04:31:25.155Z,21.37
2019-03-22T04:33:55.214Z,22.07
2019-03-22T04:36:25.202Z,23.10
2019-03-22T04:38:55.222Z,23.73
2019-03-22T04:41:25.298Z,23.37
2019-03-22T04:43:55.375Z,23.33
2019-03-22T04:46:26.501Z,23.20
2019-03-22T04:48:57.622Z,24.20
2019-03-22T04:51:46.871Z,23.67
2019-03-22T04:54:19.196Z,24.50
2019-03-22T04:56:50.880Z,22.63
2019-03-22T04:59:21.625Z,23.07
2019-03-22T05:01:54.502Z,23.37
2019-03-22T05:04:26.400Z,25.93
2019-03-22T05:06:57.545Z,26.53
2019-03-22T05:09:30.122Z,26.53
2019-03-22T05:12:03.251Z,28.20
2019-03-22T05:14:36.691Z,26.40
2019-03-22T05:17:08.957Z,27.27
2019-03-22T05:19:42.009Z,29.10
2019-03-22T05:22:14.216Z,28.60
2019-03-22T05:24:47.305Z,29.90
2019-03-22T05:27:18.373Z,28.43
2019-03-22T05:29:50.289Z,28.43
2019-03-22T05:32:20.298Z,29.17
2019-03-22T05:34:50.315Z,28.87
2019-03-22T05:37:20.333Z,29.37
2019-03-22T05:39:50.703Z,31.53
2019-03-22T05:42:20.723Z,31.40
2019-03-22T05:44:51.141Z,30.77
2019-03-22T05:47:21.160Z,30.17
2019-03-22T05:49:51.327Z,30.63
2019-03-22T05:52:21.667Z,28.57
2019-03-22T05:54:51.664Z,27.57
2019-03-22T05:57:21.720Z,30.07
2019-03-22T05:59:51.800Z,28.87
2019-03-22T06:02:21.894Z,28.67
2019-03-22T06:04:51.917Z,28.67
2019-03-22T06:07:21.953Z,28.93
2019-03-22T06:09:52.070Z,28.07
2019-03-22T06:12:22.137Z,29.47
2019-03-22T06:14:52.275Z,27.47
2019-03-22T06:17:22.674Z,27.03
2019-03-22T06:19:52.742Z,28.10
2019-03-22T06:22:22.744Z,28.63
2019-03-22T06:24:52.765Z,28.87
2019-03-22T06:27:23.194Z,27.77
2019-03-22T06:29:54.356Z,27.47
2019-03-22T06:32:24.689Z,27.47
2019-03-22T06:34:54.745Z,30.57
2019-03-22T06:37:24.747Z,29.13
2019-03-22T06:39:54.728Z,29.67
2019-03-22T06:42:24.744Z,27.90
2019-03-22T06:45:13.535Z,29.53
2019-03-22T06:47:43.558Z,29.53
2019-03-22T06:50:13.528Z,29.33
2019-03-22T06:52:43.532Z,29.50
2019-03-22T06:55:13.534Z,28.33
2019-03-22T06:57:43.514Z,29.40
2019-03-22T07:00:13.613Z,28.43
2019-03-22T07:02:43.636Z,28.57
2019-03-22T07:05:13.931Z,28.67
2019-03-22T07:07:43.958Z,26.77
2019-03-22T07:10:14.008Z,27.10
2019-03-22T07:12:44.033Z,24.97
2019-03-22T07:15:14.048Z,25.23
2019-03-22T07:17:44.010Z,25.43
2019-03-22T07:20:14.126Z,25.67
2019-03-22T07:22:44.136Z,39.53
2019-03-22T07:25:14.164Z,30.03
2019-03-22T07:27:44.156Z,28.67
2019-03-22T07:30:19.017Z,24.13
2019-03-22T07:32:46.245Z,21.33
2019-03-22T07:35:16.220Z,23.63
2019-03-22T07:37:46.227Z,19.90
2019-03-22T07:40:16.290Z,20.20
2019-03-22T07:42:46.308Z,21.80
2019-03-22T07:45:16.687Z,18.27
2019-03-22T07:47:46.876Z,19.43
2019-03-22T07:50:16.898Z,20.10
2019-03-22T07:52:46.883Z,19.07
2019-03-22T07:55:16.914Z,17.73
2019-03-22T07:57:46.999Z,18.97
2019-03-22T08:00:17.001Z,17.13
2019-03-22T08:02:47.051Z,19.20
2019-03-22T08:05:17.207Z,21.03
2019-03-22T08:07:47.217Z,16.85
2019-03-22T08:10:17.241Z,21.83
2019-03-22T08:13:01.524Z,17.90
2019-03-22T08:15:33.051Z,17.48
2019-03-22T08:18:03.163Z,16.13
2019-03-22T08:20:33.568Z,14.95
2019-03-22T08:23:06.668Z,14.87
2019-03-22T08:25:37.377Z,14.00
2019-03-22T08:28:07.423Z,13.77
2019-03-22T08:30:43.076Z,13.08
2019-03-22T08:33:09.414Z,12.70
2019-03-22T08:35:39.477Z,12.78
2019-03-22T08:38:09.779Z,12.58
2019-03-22T08:40:39.811Z,11.22
2019-03-22T08:43:09.855Z,12.35
2019-03-22T08:45:39.920Z,11.65
2019-03-22T08:48:09.955Z,10.98
2019-03-22T08:50:39.907Z,10.48
2019-03-22T08:53:09.965Z,10.55
2019-03-22T08:55:40.059Z,9.48
2019-03-22T08:58:10.052Z,9.70
2019-03-22T09:00:40.177Z,12.65
2019-03-22T09:03:10.143Z,12.07
2019-03-22T09:05:40.251Z,12.90
2019-03-22T09:08:10.261Z,10.78
2019-03-22T09:10:40.330Z,8.85
2019-03-22T09:13:10.285Z,8.93
2019-03-22T09:15:41.385Z,7.78
2019-03-22T09:18:11.735Z,7.28
2019-03-22T09:20:41.819Z,8.45
2019-03-22T09:23:11.847Z,6.92
2019-03-22T09:25:41.839Z,5.83
2019-03-22T09:28:11.832Z,6.40
2019-03-22T09:30:41.933Z,5.92
2019-03-22T09:33:13.377Z,5.65
2019-03-22T09:35:43.624Z,5.58
2019-03-22T09:38:13.748Z,5.25
2019-03-22T09:40:43.752Z,5.00
2019-03-22T09:43:13.679Z,4.80
2019-03-22T09:45:43.773Z,4.50
2019-03-22T09:48:13.803Z,4.62
2019-03-22T09:50:44.200Z,4.08
2019-03-22T09:53:14.221Z,3.65
2019-03-22T09:55:44.376Z,3.90
2019-03-22T09:58:14.385Z,3.65
2019-03-22T10:00:44.444Z,3.30
2019-03-22T10:03:14.457Z,2.92
2019-03-22T10:05:44.510Z,3.30
2019-03-22T10:08:14.532Z,3.05
2019-03-22T10:10:44.542Z,2.60
2019-03-22T10:13:14.581Z,2.60
2019-03-22T10:15:44.666Z,2.45
2019-03-22T10:18:14.655Z,2.37
2019-03-22T10:20:44.739Z,2.50
2019-03-22T10:23:14.669Z,2.50
2019-03-22T10:25:44.682Z,2.58
2019-03-22T10:28:14.695Z,2.45
2019-03-22T10:30:44.729Z,2.80
2019-03-22T10:33:22.466Z,2.83
2019-03-22T10:35:46.388Z,2.85
2019-03-22T10:38:16.881Z,3.00
2019-03-22T10:40:48.508Z,2.87
2019-03-22T10:43:18.545Z,3.40
2019-03-22T10:45:48.613Z,2.77
2019-03-22T10:48:18.624Z,2.72
2019-03-22T10:50:48.665Z,2.42
2019-03-22T10:53:19.149Z,2.40
2019-03-22T10:55:49.327Z,2.70
2019-03-22T10:58:21.234Z,2.15
2019-03-22T11:00:50.973Z,2.02
2019-03-22T11:03:21.047Z,1.90
2019-03-22T11:05:51.060Z,2.40
2019-03-22T11:08:21.097Z,2.70
2019-03-22T11:10:51.094Z,2.90
2019-03-22T11:13:21.058Z,2.27
2019-03-22T11:15:51.108Z,2.85
2019-03-22T11:18:21.096Z,2.52
2019-03-22T11:20:51.124Z,2.60
2019-03-22T11:23:21.330Z,2.80
2019-03-22T11:25:51.382Z,2.67
2019-03-22T11:28:21.717Z,2.42
2019-03-22T11:30:51.854Z,2.58
2019-03-22T11:33:22.029Z,2.00
2019-03-22T11:35:52.083Z,2.20
2019-03-22T11:38:23.024Z,1.98
2019-03-22T11:40:53.129Z,1.65
2019-03-22T11:43:25.577Z,2.55
2019-03-22T11:45:55.722Z,2.37
2019-03-22T11:48:25.770Z,2.47
2019-03-22T11:50:55.797Z,2.47
2019-03-22T11:53:25.830Z,2.47
2019-03-22T11:55:56.127Z,2.25
2019-03-22T11:58:26.265Z,2.58
2019-03-22T12:00:56.316Z,2.62
2019-03-22T12:03:26.559Z,2.22
2019-03-22T12:05:56.796Z,2.95
2019-03-22T12:08:26.850Z,2.60
2019-03-22T12:10:57.003Z,2.52
2019-03-22T12:13:27.382Z,3.37
2019-03-22T12:15:57.425Z,3.02
2019-03-22T12:18:27.577Z,2.92
2019-03-22T12:20:57.577Z,2.60
2019-03-22T12:23:27.671Z,2.62
2019-03-22T12:25:57.682Z,2.00
2019-03-22T12:28:27.677Z,2.77
2019-03-22T12:30:57.663Z,2.77
2019-03-22T12:33:27.741Z,2.90
2019-03-22T12:35:57.714Z,2.50
2019-03-22T12:38:27.718Z,2.52
2019-03-22T12:40:57.661Z,2.58
2019-03-22T12:43:27.672Z,2.30
2019-03-22T12:45:57.687Z,2.10
2019-03-22T12:48:27.707Z,2.58
2019-03-22T12:50:57.692Z,2.20
2019-03-22T12:53:27.763Z,2.02
2019-03-22T12:55:57.778Z,2.25
2019-03-22T12:58:27.899Z,2.15
2019-03-22T13:00:58.276Z,2.40
2019-03-22T13:03:28.285Z,2.50
2019-03-22T13:05:58.364Z,2.40
2019-03-22T13:08:28.331Z,2.62
2019-03-22T13:10:58.344Z,2.87
2019-03-22T13:13:28.426Z,2.72
2019-03-22T13:15:58.456Z,2.00
2019-03-22T13:18:28.821Z,2.08
2019-03-22T13:20:58.870Z,2.40
2019-03-22T13:23:28.866Z,2.20
2019-03-22T13:25:58.929Z,2.35
2019-03-22T13:28:28.901Z,3.12
2019-03-22T13:30:58.885Z,2.27
2019-03-22T13:33:28.964Z,2.77
2019-03-22T13:35:58.974Z,2.55
2019-03-22T13:38:28.985Z,2.50
2019-03-22T13:40:59.011Z,2.75
2019-03-22T13:43:29.505Z,1.90
2019-03-22T13:45:59.497Z,2.00
2019-03-22T13:48:29.508Z,2.27
2019-03-22T13:50:59.528Z,2.20
2019-03-22T13:53:29.516Z,2.05
2019-03-22T13:55:59.483Z,2.10
2019-03-22T13:58:29.492Z,2.10
2019-03-22T14:00:59.485Z,2.20
2019-03-22T14:03:29.511Z,2.90
2019-03-22T14:05:59.512Z,2.87
2019-03-22T14:08:29.854Z,2.90
2019-03-22T14:10:59.878Z,2.52
2019-03-22T14:13:29.875Z,2.50
2019-03-22T14:15:59.868Z,2.60
2019-03-22T14:18:29.889Z,1.92
2019-03-22T14:21:00.462Z,2.60
2019-03-22T14:23:30.455Z,2.30
2019-03-22T14:26:00.509Z,2.72
2019-03-22T14:28:30.490Z,2.20
2019-03-22T14:31:00.489Z,2.42
2019-03-22T14:33:30.512Z,2.55
2019-03-22T14:36:00.477Z,2.45
2019-03-22T14:38:30.493Z,2.77
2019-03-22T14:41:00.608Z,2.83
2019-03-22T14:43:30.605Z,2.62
2019-03-22T14:46:00.552Z,2.60
2019-03-22T14:48:30.566Z,2.85
2019-03-22T14:51:01.660Z,2.10
2019-03-22T14:53:31.715Z,2.20
2019-03-22T14:56:02.061Z,2.02
2019-03-22T14:58:32.088Z,2.02
2019-03-22T15:01:02.071Z,2.10
2019-03-22T15:03:32.186Z,2.30
2019-03-22T15:06:02.186Z,2.02
2019-03-22T15:08:32.157Z,1.72
2019-03-22T15:11:02.161Z,1.40
2019-03-22T15:13:38.708Z,1.30
2019-03-22T15:16:27.634Z,1.80
2019-03-22T15:19:22.396Z,1.60
2019-03-22T15:22:29.721Z,1.70
2019-03-22T15:25:26.911Z,2.08
2019-03-22T15:28:10.091Z,1.70
2019-03-22T15:31:05.116Z,1.72
2019-03-22T15:33:44.626Z,1.65
2019-03-22T15:36:33.614Z,1.47
2019-03-22T15:39:25.135Z,1.70
2019-03-22T15:41:55.527Z,1.62
2019-03-22T15:44:25.538Z,1.92
2019-03-22T15:46:55.569Z,1.82
2019-03-22T15:49:25.573Z,2.12
2019-03-22T15:51:55.561Z,2.00
2019-03-22T15:54:25.588Z,2.02
2019-03-22T15:56:55.601Z,2.02
2019-03-22T15:59:25.585Z,2.30
2019-03-22T16:01:55.584Z,2.35
2019-03-22T16:04:25.615Z,2.35
2019-03-22T16:06:55.636Z,2.00
2019-03-22T16:09:25.954Z,2.40
2019-03-22T16:11:56.010Z,2.45
2019-03-22T16:14:26.013Z,2.40
2019-03-22T16:16:56.038Z,2.58
2019-03-22T16:19:26.063Z,2.30
2019-03-22T16:21:56.114Z,2.22
2019-03-22T16:24:26.120Z,2.17
2019-03-22T16:26:56.145Z,1.93
2019-03-22T16:29:26.127Z,1.80
2019-03-22T16:31:56.098Z,2.07
2019-03-22T16:34:26.142Z,2.40
2019-03-22T16:36:56.144Z,2.17
2019-03-22T16:39:26.145Z,2.52
2019-03-22T16:41:56.193Z,2.70
2019-03-22T16:44:26.219Z,2.90
2019-03-22T16:46:56.244Z,2.30
2019-03-22T16:49:26.335Z,3.47
2019-03-22T16:51:56.308Z,2.90
2019-03-22T16:54:26.448Z,3.30
2019-03-22T16:56:56.565Z,2.92
2019-03-22T16:59:26.627Z,3.60
2019-03-22T17:01:56.687Z,3.40
2019-03-22T17:04:26.684Z,4.57
2019-03-22T17:06:56.674Z,4.40
2019-03-22T17:09:26.735Z,4.30
2019-03-22T17:11:56.780Z,4.03
2019-03-22T17:14:27.124Z,4.73
2019-03-22T17:16:57.218Z,3.57
2019-03-22T17:19:27.360Z,5.87
2019-03-22T17:21:57.388Z,9.73
2019-03-22T17:24:27.588Z,5.87
2019-03-22T17:26:57.589Z,4.43
2019-03-22T17:29:27.605Z,6.10
2019-03-22T17:31:57.636Z,7.53
2019-03-22T17:34:27.659Z,9.73
2019-03-22T17:36:57.715Z,12.50
2019-03-22T17:39:27.753Z,13.40
2019-03-22T17:41:57.757Z,14.83
2019-03-22T17:44:27.809Z,12.87
2019-03-22T17:46:57.875Z,13.20
2019-03-22T17:49:27.886Z,12.07
2019-03-22T17:51:57.959Z,15.07
2019-03-22T17:54:28.161Z,15.37
2019-03-22T17:56:58.313Z,17.10
2019-03-22T17:59:28.531Z,17.43
2019-03-22T18:01:58.690Z,17.53
2019-03-22T18:04:28.933Z,14.87
2019-03-22T18:06:59.175Z,14.77
2019-03-22T18:09:29.341Z,12.30
2019-03-22T18:11:59.353Z,14.20
2019-03-22T18:14:29.397Z,11.40
2019-03-22T18:16:59.828Z,11.70
2019-03-22T18:19:29.882Z,10.27
2019-03-22T18:21:59.915Z,10.37
2019-03-22T18:24:30.027Z,11.07
2019-03-22T18:27:00.158Z,11.23
2019-03-22T18:29:30.142Z,11.47
2019-03-22T18:32:00.174Z,10.17
2019-03-22T18:34:34.331Z,10.63
2019-03-22T18:37:01.855Z,9.03
2019-03-22T18:39:31.873Z,9.30
2019-03-22T18:42:01.905Z,7.93
2019-03-22T18:44:33.132Z,8.37
2019-03-22T18:47:03.204Z,8.80
2019-03-22T18:49:33.229Z,8.27
2019-03-22T18:52:03.293Z,8.90
2019-03-22T18:54:33.390Z,8.70
2019-03-22T18:57:03.415Z,8.47
2019-03-22T18:59:33.460Z,9.10
2019-03-22T19:02:03.528Z,9.40
2019-03-22T19:04:33.515Z,10.30
2019-03-22T19:07:03.559Z,11.70
2019-03-22T19:09:33.569Z,12.27
2019-03-22T19:12:03.708Z,10.63
2019-03-22T19:14:33.909Z,12.27
2019-03-22T19:17:03.912Z,12.03
2019-03-22T19:19:33.979Z,12.27
2019-03-22T19:22:06.269Z,13.33
2019-03-22T19:24:36.293Z,13.30
2019-03-22T19:27:07.146Z,14.00
2019-03-22T19:29:37.133Z,14.93
2019-03-22T19:32:13.220Z,15.67
2019-03-22T19:34:39.198Z,18.27
2019-03-22T19:37:09.215Z,16.53
2019-03-22T19:39:39.204Z,18.10
2019-03-22T19:42:09.296Z,18.00
2019-03-22T19:44:39.274Z,17.97
2019-03-22T19:47:09.285Z,18.03
2019-03-22T19:49:39.307Z,17.70
2019-03-22T19:52:09.347Z,17.80
2019-03-22T19:54:39.338Z,17.30
2019-03-22T19:57:09.373Z,17.20
2019-03-22T19:59:39.491Z,15.50
2019-03-22T20:02:09.513Z,15.60
2019-03-22T20:04:39.497Z,16.23
2019-03-22T20:07:09.683Z,14.73
2019-03-22T20:09:39.693Z,18.10
2019-03-22T20:12:09.679Z,16.80
2019-03-22T20:14:39.733Z,17.43
2019-03-22T20:17:09.763Z,19.40
2019-03-22T20:19:39.778Z,21.00
2019-03-22T20:22:09.903Z,21.83
2019-03-22T20:24:58.665Z,21.40
2019-03-22T20:27:28.976Z,21.80
2019-03-22T20:29:58.984Z,22.03
2019-03-22T20:32:28.998Z,22.53
2019-03-22T20:34:59.074Z,22.13
2019-03-22T20:37:29.145Z,21.57
2019-03-22T20:39:59.196Z,21.80
2019-03-22T20:42:29.214Z,21.27
2019-03-22T20:44:59.306Z,22.10
2019-03-22T20:47:29.371Z,22.10
2019-03-22T20:49:59.389Z,22.63
2019-03-22T20:52:29.426Z,24.70
2019-03-22T20:54:59.495Z,23.93
2019-03-22T20:57:29.535Z,24.50
2019-03-22T20:59:59.604Z,25.73
2019-03-22T21:02:29.653Z,25.30
2019-03-22T21:04:59.977Z,28.47
2019-03-22T21:07:30.038Z,31.53
2019-03-22T21:10:00.433Z,30.70
2019-03-22T21:12:30.430Z,29.40
2019-03-22T21:15:00.407Z,29.20
2019-03-22T21:17:30.461Z,28.40
2019-03-22T21:20:00.461Z,28.67
2019-03-22T21:22:30.488Z,28.17
2019-03-22T21:25:00.541Z,29.00
2019-03-22T21:27:30.893Z,28.43
2019-03-22T21:30:01.007Z,27.87
2019-03-22T21:32:31.207Z,27.33
2019-03-22T21:35:01.218Z,25.10
2019-03-22T21:37:31.235Z,25.47
2019-03-22T21:40:01.318Z,28.03
2019-03-22T21:42:31.349Z,25.63
2019-03-22T21:45:01.363Z,25.00
2019-03-22T21:47:31.373Z,22.97
2019-03-22T21:50:01.422Z,25.33
2019-03-22T21:52:31.412Z,25.10
2019-03-22T21:55:01.484Z,24.83
2019-03-22T21:57:31.506Z,26.40
2019-03-22T22:00:01.509Z,24.03
2019-03-22T22:02:31.577Z,27.13
2019-03-22T22:05:01.597Z,25.57
2019-03-22T22:07:31.657Z,26.97
2019-03-22T22:10:02.270Z,26.47
2019-03-22T22:12:32.268Z,27.03
2019-03-22T22:15:02.276Z,27.87
2019-03-22T22:17:32.304Z,39.17
2019-03-22T22:20:02.300Z,38.23
2019-03-22T22:22:32.313Z,30.17
2019-03-22T22:25:02.728Z,33.63
2019-03-22T22:27:33.154Z,33.33
2019-03-22T22:30:03.154Z,34.43
2019-03-22T22:32:33.228Z,33.93
2019-03-22T22:35:03.272Z,36.63
2019-03-22T22:37:33.313Z,51.17
2019-03-22T22:40:03.342Z,42.90
2019-03-22T22:42:33.954Z,41.00
2019-03-22T22:45:03.954Z,42.43
2019-03-22T22:47:33.974Z,49.87
2019-03-22T22:50:04.011Z,40.20
2019-03-22T22:52:34.023Z,35.80
2019-03-22T22:55:04.612Z,33.27
2019-03-22T22:57:34.659Z,31.93
2019-03-22T23:00:05.709Z,31.07
2019-03-22T23:02:35.742Z,33.97
2019-03-22T23:05:05.799Z,32.13
2019-03-22T23:07:35.865Z,32.80
2019-03-22T23:10:06.504Z,30.00
2019-03-22T23:12:36.494Z,31.73
2019-03-22T23:15:06.829Z,33.83
2019-03-22T23:17:36.823Z,35.27
2019-03-22T23:20:07.781Z,33.40
2019-03-22T23:22:37.871Z,34.97
2019-03-22T23:25:08.264Z,33.63
2019-03-22T23:27:38.334Z,32.73
2019-03-22T23:30:08.948Z,34.33
2019-03-22T23:32:38.955Z,34.87
2019-03-22T23:35:09.125Z,35.70
2019-03-22T23:37:39.132Z,36.73
2019-03-22T23:40:09.504Z,38.20
2019-03-22T23:42:39.659Z,36.33
2019-03-22T23:45:09.754Z,36.60
2019-03-22T23:47:39.768Z,36.13
2019-03-22T23:50:10.398Z,37.67
2019-03-22T23:52:40.406Z,38.73
2019-03-22T23:55:10.811Z,37.00
2019-03-22T23:57:40.846Z,37.80
